sensor_id;sensor_type;location;lat;lon;timestamp;P1;durP1;ratioP1;P2;durP2;ratioP2
24557;SDS011;12726;49.148;8.582;2023-06-26T00:02:04;5.85;;;4.50;;
24557;SDS011;12726;49.148;8.582;2023-06-26T00:04:50;5.90;;;4.82;;
24557;SDS011;12726;49.148;8.582;2023-06-26T00:07:37;6.40;;;5.10;;
24557;SDS011;12726;49.148;8.582;2023-06-26T00:10:23;5.60;;;4.80;;
24557;SDS011;12726;49.148;8.582;2023-06-26T00:13:08;8.05;;;4.95;;
24557;SDS011;12726;49.148;8.582;2023-06-26T00:15:57;6.28;;;5.07;;
24557;SDS011;12726;49.148;8.582;2023-06-26T00:18:47;5.97;;;4.95;;
24557;SDS011;12726;49.148;8.582;2023-06-26T00:21:32;5.05;;;4.40;;
24557;SDS011;12726;49.148;8.582;2023-06-26T00:24:17;6.43;;;4.75;;
24557;SDS011;12726;49.148;8.582;2023-06-26T00:27:03;8.02;;;5.68;;
24557;SDS011;12726;49.148;8.582;2023-06-26T00:29:48;5.65;;;4.97;;
24557;SDS011;12726;49.148;8.582;2023-06-26T00:32:35;6.15;;;4.80;;
24557;SDS011;12726;49.148;8.582;2023-06-26T00:35:21;7.07;;;4.97;;
24557;SDS011;12726;49.148;8.582;2023-06-26T00:38:06;6.25;;;5.40;;
24557;SDS011;12726;49.148;8.582;2023-06-26T00:40:52;7.20;;;5.35;;
24557;SDS011;12726;49.148;8.582;2023-06-26T00:43:38;8.63;;;5.78;;
24557;SDS011;12726;49.148;8.582;2023-06-26T00:46:25;10.50;;;5.65;;
24557;SDS011;12726;49.148;8.582;2023-06-26T00:49:11;6.00;;;5.20;;
24557;SDS011;12726;49.148;8.582;2023-06-26T00:51:57;6.97;;;4.70;;
24557;SDS011;12726;49.148;8.582;2023-06-26T00:54:42;5.85;;;4.57;;
24557;SDS011;12726;49.148;8.582;2023-06-26T00:57:28;8.05;;;5.28;;
24557;SDS011;12726;49.148;8.582;2023-06-26T01:00:15;5.87;;;4.57;;
24557;SDS011;12726;49.148;8.582;2023-06-26T01:03:01;5.97;;;4.75;;
24557;SDS011;12726;49.148;8.582;2023-06-26T01:05:47;10.60;;;5.38;;
24557;SDS011;12726;49.148;8.582;2023-06-26T01:08:35;7.00;;;5.40;;
24557;SDS011;12726;49.148;8.582;2023-06-26T01:11:20;7.40;;;4.68;;
24557;SDS011;12726;49.148;8.582;2023-06-26T01:14:05;6.63;;;5.05;;
24557;SDS011;12726;49.148;8.582;2023-06-26T01:16:51;7.53;;;4.38;;
24557;SDS011;12726;49.148;8.582;2023-06-26T01:19:41;7.90;;;5.72;;
24557;SDS011;12726;49.148;8.582;2023-06-26T01:22:31;8.60;;;5.30;;
24557;SDS011;12726;49.148;8.582;2023-06-26T01:25:29;6.35;;;5.20;;
24557;SDS011;12726;49.148;8.582;2023-06-26T01:28:23;6.80;;;5.43;;
24557;SDS011;12726;49.148;8.582;2023-06-26T01:31:09;7.75;;;5.35;;
24557;SDS011;12726;49.148;8.582;2023-06-26T01:33:56;5.90;;;4.72;;
24557;SDS011;12726;49.148;8.582;2023-06-26T01:36:43;8.05;;;5.40;;
24557;SDS011;12726;49.148;8.582;2023-06-26T01:39:29;7.15;;;5.53;;
24557;SDS011;12726;49.148;8.582;2023-06-26T01:42:14;9.57;;;6.07;;
24557;SDS011;12726;49.148;8.582;2023-06-26T01:45:01;7.15;;;5.55;;
24557;SDS011;12726;49.148;8.582;2023-06-26T01:47:51;9.15;;;5.45;;
24557;SDS011;12726;49.148;8.582;2023-06-26T01:50:38;8.25;;;5.68;;
24557;SDS011;12726;49.148;8.582;2023-06-26T01:53:25;7.32;;;5.30;;
24557;SDS011;12726;49.148;8.582;2023-06-26T01:56:17;7.28;;;5.93;;
24557;SDS011;12726;49.148;8.582;2023-06-26T01:59:03;7.78;;;5.63;;
24557;SDS011;12726;49.148;8.582;2023-06-26T02:01:53;9.07;;;5.43;;
24557;SDS011;12726;49.148;8.582;2023-06-26T02:04:39;8.90;;;5.28;;
24557;SDS011;12726;49.148;8.582;2023-06-26T02:07:25;6.50;;;5.47;;
24557;SDS011;12726;49.148;8.582;2023-06-26T02:10:10;6.80;;;5.13;;
24557;SDS011;12726;49.148;8.582;2023-06-26T02:12:55;5.75;;;4.88;;
24557;SDS011;12726;49.148;8.582;2023-06-26T02:15:41;7.25;;;5.40;;
24557;SDS011;12726;49.148;8.582;2023-06-26T02:18:28;5.70;;;4.68;;
24557;SDS011;12726;49.148;8.582;2023-06-26T02:21:13;7.53;;;5.70;;
24557;SDS011;12726;49.148;8.582;2023-06-26T02:23:59;6.55;;;5.00;;
24557;SDS011;12726;49.148;8.582;2023-06-26T02:26:44;6.60;;;5.13;;
24557;SDS011;12726;49.148;8.582;2023-06-26T02:29:29;5.82;;;5.10;;
24557;SDS011;12726;49.148;8.582;2023-06-26T02:32:15;7.75;;;5.25;;
24557;SDS011;12726;49.148;8.582;2023-06-26T02:35:01;8.30;;;5.70;;
24557;SDS011;12726;49.148;8.582;2023-06-26T02:37:47;6.35;;;5.03;;
24557;SDS011;12726;49.148;8.582;2023-06-26T02:40:32;6.30;;;4.95;;
24557;SDS011;12726;49.148;8.582;2023-06-26T02:43:17;12.18;;;5.60;;
24557;SDS011;12726;49.148;8.582;2023-06-26T02:46:03;8.75;;;5.05;;
24557;SDS011;12726;49.148;8.582;2023-06-26T02:48:48;8.60;;;5.30;;
24557;SDS011;12726;49.148;8.582;2023-06-26T02:51:35;9.38;;;5.55;;
24557;SDS011;12726;49.148;8.582;2023-06-26T02:54:21;7.70;;;5.25;;
24557;SDS011;12726;49.148;8.582;2023-06-26T02:57:06;6.55;;;4.70;;
24557;SDS011;12726;49.148;8.582;2023-06-26T02:59:51;6.95;;;4.60;;
24557;SDS011;12726;49.148;8.582;2023-06-26T03:02:37;6.55;;;4.80;;
24557;SDS011;12726;49.148;8.582;2023-06-26T03:05:22;8.43;;;5.85;;
24557;SDS011;12726;49.148;8.582;2023-06-26T03:08:09;9.95;;;5.45;;
24557;SDS011;12726;49.148;8.582;2023-06-26T03:10:54;11.32;;;5.53;;
24557;SDS011;12726;49.148;8.582;2023-06-26T03:13:40;10.35;;;6.30;;
24557;SDS011;12726;49.148;8.582;2023-06-26T03:16:25;8.07;;;5.38;;
24557;SDS011;12726;49.148;8.582;2023-06-26T03:19:10;9.93;;;6.70;;
24557;SDS011;12726;49.148;8.582;2023-06-26T03:21:55;8.93;;;6.38;;
24557;SDS011;12726;49.148;8.582;2023-06-26T03:24:42;8.52;;;6.10;;
24557;SDS011;12726;49.148;8.582;2023-06-26T03:27:29;8.80;;;6.07;;
24557;SDS011;12726;49.148;8.582;2023-06-26T03:30:15;7.87;;;5.70;;
24557;SDS011;12726;49.148;8.582;2023-06-26T03:33:00;9.75;;;6.35;;
24557;SDS011;12726;49.148;8.582;2023-06-26T03:35:45;8.43;;;5.65;;
24557;SDS011;12726;49.148;8.582;2023-06-26T03:38:31;7.97;;;5.53;;
24557;SDS011;12726;49.148;8.582;2023-06-26T03:41:17;6.95;;;5.53;;
24557;SDS011;12726;49.148;8.582;2023-06-26T03:44:03;9.68;;;6.18;;
24557;SDS011;12726;49.148;8.582;2023-06-26T03:46:48;7.47;;;5.45;;
24557;SDS011;12726;49.148;8.582;2023-06-26T03:49:33;8.98;;;6.07;;
24557;SDS011;12726;49.148;8.582;2023-06-26T03:52:19;9.95;;;5.70;;
24557;SDS011;12726;49.148;8.582;2023-06-26T03:55:04;7.65;;;4.93;;
24557;SDS011;12726;49.148;8.582;2023-06-26T03:57:51;8.10;;;5.50;;
24557;SDS011;12726;49.148;8.582;2023-06-26T04:00:36;9.20;;;5.88;;
24557;SDS011;12726;49.148;8.582;2023-06-26T04:03:21;7.68;;;5.25;;
24557;SDS011;12726;49.148;8.582;2023-06-26T04:06:07;10.82;;;5.82;;
24557;SDS011;12726;49.148;8.582;2023-06-26T04:08:53;11.00;;;6.50;;
24557;SDS011;12726;49.148;8.582;2023-06-26T04:11:38;7.63;;;5.88;;
24557;SDS011;12726;49.148;8.582;2023-06-26T04:14:25;8.88;;;6.07;;
24557;SDS011;12726;49.148;8.582;2023-06-26T04:17:10;12.00;;;5.88;;
24557;SDS011;12726;49.148;8.582;2023-06-26T04:19:56;10.35;;;6.32;;
24557;SDS011;12726;49.148;8.582;2023-06-26T04:22:41;9.35;;;6.15;;
24557;SDS011;12726;49.148;8.582;2023-06-26T04:25:26;10.45;;;5.68;;
24557;SDS011;12726;49.148;8.582;2023-06-26T04:28:12;12.00;;;6.60;;
24557;SDS011;12726;49.148;8.582;2023-06-26T04:30:59;11.68;;;7.05;;
24557;SDS011;12726;49.148;8.582;2023-06-26T04:33:45;11.48;;;6.18;;
24557;SDS011;12726;49.148;8.582;2023-06-26T04:36:34;12.15;;;6.88;;
24557;SDS011;12726;49.148;8.582;2023-06-26T04:39:22;11.68;;;6.70;;
24557;SDS011;12726;49.148;8.582;2023-06-26T04:42:08;8.48;;;5.88;;
24557;SDS011;12726;49.148;8.582;2023-06-26T04:44:55;11.20;;;6.65;;
24557;SDS011;12726;49.148;8.582;2023-06-26T04:47:42;9.23;;;5.90;;
24557;SDS011;12726;49.148;8.582;2023-06-26T04:50:27;8.98;;;5.63;;
24557;SDS011;12726;49.148;8.582;2023-06-26T04:53:13;10.02;;;5.97;;
24557;SDS011;12726;49.148;8.582;2023-06-26T04:55:58;10.25;;;5.53;;
24557;SDS011;12726;49.148;8.582;2023-06-26T04:58:43;9.27;;;5.55;;
24557;SDS011;12726;49.148;8.582;2023-06-26T05:01:29;11.13;;;6.95;;
24557;SDS011;12726;49.148;8.582;2023-06-26T05:04:17;9.82;;;6.40;;
24557;SDS011;12726;49.148;8.582;2023-06-26T05:07:02;7.50;;;5.80;;
24557;SDS011;12726;49.148;8.582;2023-06-26T05:09:48;9.32;;;6.47;;
24557;SDS011;12726;49.148;8.582;2023-06-26T05:12:34;12.48;;;7.05;;
24557;SDS011;12726;49.148;8.582;2023-06-26T05:15:19;9.57;;;7.18;;
24557;SDS011;12726;49.148;8.582;2023-06-26T05:18:05;9.02;;;7.28;;
24557;SDS011;12726;49.148;8.582;2023-06-26T05:20:52;11.77;;;6.82;;
24557;SDS011;12726;49.148;8.582;2023-06-26T05:23:37;10.93;;;7.03;;
24557;SDS011;12726;49.148;8.582;2023-06-26T05:26:23;9.10;;;6.60;;
24557;SDS011;12726;49.148;8.582;2023-06-26T05:29:09;11.68;;;7.00;;
24557;SDS011;12726;49.148;8.582;2023-06-26T05:31:55;9.90;;;7.35;;
24557;SDS011;12726;49.148;8.582;2023-06-26T05:34:41;10.10;;;7.35;;
24557;SDS011;12726;49.148;8.582;2023-06-26T05:37:28;8.68;;;6.65;;
24557;SDS011;12726;49.148;8.582;2023-06-26T05:40:16;12.70;;;7.43;;
24557;SDS011;12726;49.148;8.582;2023-06-26T05:43:03;8.93;;;6.63;;
24557;SDS011;12726;49.148;8.582;2023-06-26T05:45:48;10.27;;;6.82;;
24557;SDS011;12726;49.148;8.582;2023-06-26T05:48:34;10.23;;;6.97;;
24557;SDS011;12726;49.148;8.582;2023-06-26T05:51:19;9.57;;;7.05;;
24557;SDS011;12726;49.148;8.582;2023-06-26T05:54:07;9.63;;;7.07;;
24557;SDS011;12726;49.148;8.582;2023-06-26T05:56:52;10.80;;;6.60;;
24557;SDS011;12726;49.148;8.582;2023-06-26T05:59:43;10.82;;;6.95;;
24557;SDS011;12726;49.148;8.582;2023-06-26T06:02:28;10.07;;;7.25;;
24557;SDS011;12726;49.148;8.582;2023-06-26T06:05:14;11.02;;;7.75;;
24557;SDS011;12726;49.148;8.582;2023-06-26T06:07:59;10.60;;;7.38;;
24557;SDS011;12726;49.148;8.582;2023-06-26T06:10:46;8.95;;;6.95;;
24557;SDS011;12726;49.148;8.582;2023-06-26T06:13:31;11.85;;;7.00;;
24557;SDS011;12726;49.148;8.582;2023-06-26T06:16:17;11.65;;;7.22;;
24557;SDS011;12726;49.148;8.582;2023-06-26T06:19:03;8.00;;;6.47;;
24557;SDS011;12726;49.148;8.582;2023-06-26T06:21:50;13.55;;;7.40;;
24557;SDS011;12726;49.148;8.582;2023-06-26T06:24:36;8.00;;;6.57;;
24557;SDS011;12726;49.148;8.582;2023-06-26T06:27:22;9.27;;;6.28;;
24557;SDS011;12726;49.148;8.582;2023-06-26T06:30:08;8.00;;;6.38;;
24557;SDS011;12726;49.148;8.582;2023-06-26T06:32:54;9.50;;;7.15;;
24557;SDS011;12726;49.148;8.582;2023-06-26T06:35:40;11.10;;;6.50;;
24557;SDS011;12726;49.148;8.582;2023-06-26T06:38:25;10.45;;;6.40;;
24557;SDS011;12726;49.148;8.582;2023-06-26T06:41:10;8.30;;;5.72;;
24557;SDS011;12726;49.148;8.582;2023-06-26T06:43:57;8.15;;;5.90;;
24557;SDS011;12726;49.148;8.582;2023-06-26T06:46:43;7.22;;;6.00;;
24557;SDS011;12726;49.148;8.582;2023-06-26T06:49:28;11.05;;;6.47;;
24557;SDS011;12726;49.148;8.582;2023-06-26T06:52:13;7.78;;;5.93;;
24557;SDS011;12726;49.148;8.582;2023-06-26T06:54:59;7.55;;;5.97;;
24557;SDS011;12726;49.148;8.582;2023-06-26T06:57:49;8.52;;;5.95;;
24557;SDS011;12726;49.148;8.582;2023-06-26T07:00:36;8.10;;;5.90;;
24557;SDS011;12726;49.148;8.582;2023-06-26T07:03:21;10.10;;;6.10;;
24557;SDS011;12726;49.148;8.582;2023-06-26T07:06:06;9.43;;;5.82;;
24557;SDS011;12726;49.148;8.582;2023-06-26T07:08:52;10.65;;;6.10;;
24557;SDS011;12726;49.148;8.582;2023-06-26T07:11:37;6.93;;;5.68;;
24557;SDS011;12726;49.148;8.582;2023-06-26T07:14:22;7.07;;;5.82;;
24557;SDS011;12726;49.148;8.582;2023-06-26T07:17:09;13.10;;;5.78;;
24557;SDS011;12726;49.148;8.582;2023-06-26T07:19:55;6.53;;;5.53;;
24557;SDS011;12726;49.148;8.582;2023-06-26T07:22:41;7.35;;;5.10;;
24557;SDS011;12726;49.148;8.582;2023-06-26T07:25:26;7.85;;;5.60;;
24557;SDS011;12726;49.148;8.582;2023-06-26T07:28:12;7.10;;;5.43;;
24557;SDS011;12726;49.148;8.582;2023-06-26T07:30:57;7.38;;;5.40;;
24557;SDS011;12726;49.148;8.582;2023-06-26T07:33:44;7.13;;;4.68;;
24557;SDS011;12726;49.148;8.582;2023-06-26T07:36:30;8.32;;;5.13;;
24557;SDS011;12726;49.148;8.582;2023-06-26T07:39:15;7.50;;;4.93;;
24557;SDS011;12726;49.148;8.582;2023-06-26T07:42:00;7.90;;;5.32;;
24557;SDS011;12726;49.148;8.582;2023-06-26T07:44:46;6.60;;;4.63;;
24557;SDS011;12726;49.148;8.582;2023-06-26T07:47:31;7.10;;;5.15;;
24557;SDS011;12726;49.148;8.582;2023-06-26T07:50:18;6.05;;;5.28;;
24557;SDS011;12726;49.148;8.582;2023-06-26T07:53:06;5.80;;;4.90;;
24557;SDS011;12726;49.148;8.582;2023-06-26T07:55:52;7.60;;;5.25;;
24557;SDS011;12726;49.148;8.582;2023-06-26T07:58:37;8.70;;;5.25;;
24557;SDS011;12726;49.148;8.582;2023-06-26T08:01:23;7.90;;;5.53;;
24557;SDS011;12726;49.148;8.582;2023-06-26T08:04:08;8.52;;;4.97;;
24557;SDS011;12726;49.148;8.582;2023-06-26T08:06:56;8.48;;;5.13;;
24557;SDS011;12726;49.148;8.582;2023-06-26T08:09:42;5.90;;;4.93;;
24557;SDS011;12726;49.148;8.582;2023-06-26T08:12:28;5.68;;;4.75;;
24557;SDS011;12726;49.148;8.582;2023-06-26T08:15:13;8.90;;;5.00;;
24557;SDS011;12726;49.148;8.582;2023-06-26T08:17:59;6.13;;;4.35;;
24557;SDS011;12726;49.148;8.582;2023-06-26T08:20:44;7.30;;;5.60;;
24557;SDS011;12726;49.148;8.582;2023-06-26T08:23:31;8.55;;;4.75;;
24557;SDS011;12726;49.148;8.582;2023-06-26T08:26:17;6.07;;;4.82;;
24557;SDS011;12726;49.148;8.582;2023-06-26T08:29:02;8.25;;;5.30;;
24557;SDS011;12726;49.148;8.582;2023-06-26T08:31:51;6.25;;;4.78;;
24557;SDS011;12726;49.148;8.582;2023-06-26T08:34:36;5.57;;;4.80;;
24557;SDS011;12726;49.148;8.582;2023-06-26T08:37:21;8.55;;;5.47;;
24557;SDS011;12726;49.148;8.582;2023-06-26T08:40:09;7.40;;;5.00;;
24557;SDS011;12726;49.148;8.582;2023-06-26T08:42:55;7.68;;;5.15;;
24557;SDS011;12726;49.148;8.582;2023-06-26T08:45:40;6.35;;;4.68;;
24557;SDS011;12726;49.148;8.582;2023-06-26T08:48:26;7.03;;;5.13;;
24557;SDS011;12726;49.148;8.582;2023-06-26T08:51:17;8.68;;;5.80;;
24557;SDS011;12726;49.148;8.582;2023-06-26T08:54:02;7.25;;;5.50;;
24557;SDS011;12726;49.148;8.582;2023-06-26T08:56:55;11.00;;;5.45;;
24557;SDS011;12726;49.148;8.582;2023-06-26T08:59:42;8.00;;;6.05;;
24557;SDS011;12726;49.148;8.582;2023-06-26T09:02:27;6.72;;;5.55;;
24557;SDS011;12726;49.148;8.582;2023-06-26T09:05:12;7.60;;;5.78;;
24557;SDS011;12726;49.148;8.582;2023-06-26T09:07:58;6.88;;;5.60;;
24557;SDS011;12726;49.148;8.582;2023-06-26T09:10:43;10.05;;;5.53;;
24557;SDS011;12726;49.148;8.582;2023-06-26T09:13:31;6.20;;;5.57;;
24557;SDS011;12726;49.148;8.582;2023-06-26T09:16:16;9.77;;;5.38;;
24557;SDS011;12726;49.148;8.582;2023-06-26T09:19:02;6.60;;;5.20;;
24557;SDS011;12726;49.148;8.582;2023-06-26T09:21:49;16.00;;;6.50;;
24557;SDS011;12726;49.148;8.582;2023-06-26T09:24:35;8.05;;;5.60;;
24557;SDS011;12726;49.148;8.582;2023-06-26T09:27:21;8.13;;;5.63;;
24557;SDS011;12726;49.148;8.582;2023-06-26T09:30:08;7.95;;;5.80;;
24557;SDS011;12726;49.148;8.582;2023-06-26T09:32:55;9.40;;;6.05;;
24557;SDS011;12726;49.148;8.582;2023-06-26T09:35:41;9.88;;;6.22;;
24557;SDS011;12726;49.148;8.582;2023-06-26T09:38:26;8.57;;;5.10;;
24557;SDS011;12726;49.148;8.582;2023-06-26T09:41:12;6.97;;;5.55;;
24557;SDS011;12726;49.148;8.582;2023-06-26T09:44:02;8.88;;;5.07;;
24557;SDS011;12726;49.148;8.582;2023-06-26T09:46:49;7.22;;;5.00;;
24557;SDS011;12726;49.148;8.582;2023-06-26T09:49:34;6.82;;;5.32;;
24557;SDS011;12726;49.148;8.582;2023-06-26T09:52:19;6.28;;;4.90;;
24557;SDS011;12726;49.148;8.582;2023-06-26T09:55:07;6.07;;;5.22;;
24557;SDS011;12726;49.148;8.582;2023-06-26T09:57:53;7.13;;;5.15;;
24557;SDS011;12726;49.148;8.582;2023-06-26T10:00:44;8.43;;;5.57;;
24557;SDS011;12726;49.148;8.582;2023-06-26T10:03:30;6.28;;;5.07;;
24557;SDS011;12726;49.148;8.582;2023-06-26T10:06:17;8.00;;;5.70;;
24557;SDS011;12726;49.148;8.582;2023-06-26T10:09:06;5.55;;;5.05;;
24557;SDS011;12726;49.148;8.582;2023-06-26T10:11:53;9.25;;;5.40;;
24557;SDS011;12726;49.148;8.582;2023-06-26T10:14:41;7.63;;;5.20;;
24557;SDS011;12726;49.148;8.582;2023-06-26T10:17:27;9.52;;;5.38;;
24557;SDS011;12726;49.148;8.582;2023-06-26T10:20:17;5.75;;;4.97;;
24557;SDS011;12726;49.148;8.582;2023-06-26T10:23:02;8.23;;;4.93;;
24557;SDS011;12726;49.148;8.582;2023-06-26T10:25:52;7.60;;;5.38;;
24557;SDS011;12726;49.148;8.582;2023-06-26T10:28:40;6.53;;;4.78;;
24557;SDS011;12726;49.148;8.582;2023-06-26T10:31:27;7.00;;;5.15;;
24557;SDS011;12726;49.148;8.582;2023-06-26T10:34:13;8.05;;;5.22;;
24557;SDS011;12726;49.148;8.582;2023-06-26T10:37:02;6.47;;;5.45;;
24557;SDS011;12726;49.148;8.582;2023-06-26T10:39:48;5.82;;;5.00;;
24557;SDS011;12726;49.148;8.582;2023-06-26T10:42:35;8.95;;;5.18;;
24557;SDS011;12726;49.148;8.582;2023-06-26T10:45:23;8.95;;;4.70;;
24557;SDS011;12726;49.148;8.582;2023-06-26T10:48:14;7.38;;;4.80;;
24557;SDS011;12726;49.148;8.582;2023-06-26T10:51:03;6.72;;;5.10;;
24557;SDS011;12726;49.148;8.582;2023-06-26T10:54:00;8.95;;;5.38;;
24557;SDS011;12726;49.148;8.582;2023-06-26T10:56:46;5.93;;;5.07;;
24557;SDS011;12726;49.148;8.582;2023-06-26T10:59:33;6.53;;;5.40;;
24557;SDS011;12726;49.148;8.582;2023-06-26T11:02:19;7.93;;;5.35;;
24557;SDS011;12726;49.148;8.582;2023-06-26T11:05:05;7.93;;;5.07;;
24557;SDS011;12726;49.148;8.582;2023-06-26T11:08:03;10.57;;;5.57;;
24557;SDS011;12726;49.148;8.582;2023-06-26T11:10:52;6.03;;;5.30;;
24557;SDS011;12726;49.148;8.582;2023-06-26T11:13:39;6.82;;;5.13;;
24557;SDS011;12726;49.148;8.582;2023-06-26T11:16:25;5.00;;;4.50;;
24557;SDS011;12726;49.148;8.582;2023-06-26T11:19:10;6.25;;;5.07;;
24557;SDS011;12726;49.148;8.582;2023-06-26T11:21:59;14.13;;;6.15;;
24557;SDS011;12726;49.148;8.582;2023-06-26T11:24:46;6.70;;;5.25;;
24557;SDS011;12726;49.148;8.582;2023-06-26T11:27:38;7.57;;;5.10;;
24557;SDS011;12726;49.148;8.582;2023-06-26T11:30:25;6.72;;;5.70;;
24557;SDS011;12726;49.148;8.582;2023-06-26T11:33:10;6.45;;;5.15;;
24557;SDS011;12726;49.148;8.582;2023-06-26T11:35:56;5.97;;;5.18;;
24557;SDS011;12726;49.148;8.582;2023-06-26T11:38:53;9.20;;;5.60;;
24557;SDS011;12726;49.148;8.582;2023-06-26T11:41:39;9.88;;;5.30;;
24557;SDS011;12726;49.148;8.582;2023-06-26T11:44:30;6.40;;;4.85;;
24557;SDS011;12726;49.148;8.582;2023-06-26T11:47:16;8.75;;;5.00;;
24557;SDS011;12726;49.148;8.582;2023-06-26T11:50:04;7.43;;;5.47;;
24557;SDS011;12726;49.148;8.582;2023-06-26T11:52:52;5.75;;;5.00;;
24557;SDS011;12726;49.148;8.582;2023-06-26T11:55:41;6.65;;;5.43;;
24557;SDS011;12726;49.148;8.582;2023-06-26T11:58:27;6.30;;;4.63;;
24557;SDS011;12726;49.148;8.582;2023-06-26T12:01:16;8.98;;;4.95;;
24557;SDS011;12726;49.148;8.582;2023-06-26T12:04:02;6.85;;;4.95;;
24557;SDS011;12726;49.148;8.582;2023-06-26T12:06:51;7.38;;;4.78;;
24557;SDS011;12726;49.148;8.582;2023-06-26T12:09:42;6.65;;;4.80;;
24557;SDS011;12726;49.148;8.582;2023-06-26T12:12:29;8.48;;;4.68;;
24557;SDS011;12726;49.148;8.582;2023-06-26T12:15:17;8.95;;;5.05;;
24557;SDS011;12726;49.148;8.582;2023-06-26T12:18:08;6.63;;;4.47;;
24557;SDS011;12726;49.148;8.582;2023-06-26T12:20:54;7.53;;;4.37;;
24557;SDS011;12726;49.148;8.582;2023-06-26T12:23:39;7.05;;;4.38;;
24557;SDS011;12726;49.148;8.582;2023-06-26T12:26:25;6.68;;;4.18;;
24557;SDS011;12726;49.148;8.582;2023-06-26T12:29:11;5.18;;;4.13;;
24557;SDS011;12726;49.148;8.582;2023-06-26T12:31:58;9.68;;;4.15;;
24557;SDS011;12726;49.148;8.582;2023-06-26T12:34:46;5.95;;;4.38;;
24557;SDS011;12726;49.148;8.582;2023-06-26T12:37:36;5.35;;;4.07;;
24557;SDS011;12726;49.148;8.582;2023-06-26T12:40:24;3.85;;;3.42;;
24557;SDS011;12726;49.148;8.582;2023-06-26T12:43:10;8.00;;;3.90;;
24557;SDS011;12726;49.148;8.582;2023-06-26T12:45:56;7.68;;;3.63;;
24557;SDS011;12726;49.148;8.582;2023-06-26T12:48:42;5.70;;;3.55;;
24557;SDS011;12726;49.148;8.582;2023-06-26T12:51:32;4.57;;;3.33;;
24557;SDS011;12726;49.148;8.582;2023-06-26T12:54:17;4.00;;;3.25;;
24557;SDS011;12726;49.148;8.582;2023-06-26T12:57:03;3.95;;;3.05;;
24557;SDS011;12726;49.148;8.582;2023-06-26T12:59:48;3.63;;;3.17;;
24557;SDS011;12726;49.148;8.582;2023-06-26T13:02:34;3.85;;;3.03;;
24557;SDS011;12726;49.148;8.582;2023-06-26T13:05:19;4.95;;;3.05;;
24557;SDS011;12726;49.148;8.582;2023-06-26T13:08:06;5.68;;;3.03;;
24557;SDS011;12726;49.148;8.582;2023-06-26T13:10:52;4.35;;;2.90;;
24557;SDS011;12726;49.148;8.582;2023-06-26T13:13:38;7.45;;;3.10;;
24557;SDS011;12726;49.148;8.582;2023-06-26T13:16:23;4.85;;;3.03;;
24557;SDS011;12726;49.148;8.582;2023-06-26T13:19:09;6.00;;;2.72;;
24557;SDS011;12726;49.148;8.582;2023-06-26T13:21:54;4.18;;;3.10;;
24557;SDS011;12726;49.148;8.582;2023-06-26T13:24:41;5.85;;;2.95;;
24557;SDS011;12726;49.148;8.582;2023-06-26T13:27:26;5.78;;;3.05;;
24557;SDS011;12726;49.148;8.582;2023-06-26T13:30:12;7.05;;;3.45;;
24557;SDS011;12726;49.148;8.582;2023-06-26T13:32:57;5.97;;;3.72;;
24557;SDS011;12726;49.148;8.582;2023-06-26T13:35:43;4.25;;;2.85;;
24557;SDS011;12726;49.148;8.582;2023-06-26T13:38:28;6.95;;;3.40;;
24557;SDS011;12726;49.148;8.582;2023-06-26T13:41:15;5.68;;;3.28;;
24557;SDS011;12726;49.148;8.582;2023-06-26T13:44:00;6.10;;;4.43;;
24557;SDS011;12726;49.148;8.582;2023-06-26T13:46:45;6.03;;;4.30;;
24557;SDS011;12726;49.148;8.582;2023-06-26T13:49:31;7.40;;;4.07;;
24557;SDS011;12726;49.148;8.582;2023-06-26T13:52:16;11.00;;;5.00;;
24557;SDS011;12726;49.148;8.582;2023-06-26T13:55:01;11.02;;;5.50;;
24557;SDS011;12726;49.148;8.582;2023-06-26T13:57:50;8.65;;;6.07;;
24557;SDS011;12726;49.148;8.582;2023-06-26T14:00:35;12.15;;;5.80;;
24557;SDS011;12726;49.148;8.582;2023-06-26T14:03:21;7.70;;;6.15;;
24557;SDS011;12726;49.148;8.582;2023-06-26T14:06:06;10.10;;;6.70;;
24557;SDS011;12726;49.148;8.582;2023-06-26T14:08:51;10.77;;;6.47;;
24557;SDS011;12726;49.148;8.582;2023-06-26T14:11:37;13.20;;;6.95;;
24557;SDS011;12726;49.148;8.582;2023-06-26T14:14:23;9.65;;;6.75;;
24557;SDS011;12726;49.148;8.582;2023-06-26T14:17:09;9.88;;;6.65;;
24557;SDS011;12726;49.148;8.582;2023-06-26T14:20:00;12.02;;;7.00;;
24557;SDS011;12726;49.148;8.582;2023-06-26T14:22:45;15.40;;;6.82;;
24557;SDS011;12726;49.148;8.582;2023-06-26T14:25:30;16.23;;;7.72;;
24557;SDS011;12726;49.148;8.582;2023-06-26T14:28:16;9.50;;;7.00;;
24557;SDS011;12726;49.148;8.582;2023-06-26T14:31:03;10.02;;;6.50;;
24557;SDS011;12726;49.148;8.582;2023-06-26T14:33:48;9.13;;;5.90;;
24557;SDS011;12726;49.148;8.582;2023-06-26T14:36:34;10.52;;;6.28;;
24557;SDS011;12726;49.148;8.582;2023-06-26T14:39:21;8.82;;;5.25;;
24557;SDS011;12726;49.148;8.582;2023-06-26T14:42:06;5.00;;;3.78;;
24557;SDS011;12726;49.148;8.582;2023-06-26T14:44:52;4.63;;;3.50;;
24557;SDS011;12726;49.148;8.582;2023-06-26T14:47:38;6.75;;;3.30;;
24557;SDS011;12726;49.148;8.582;2023-06-26T14:50:23;7.28;;;2.90;;
24557;SDS011;12726;49.148;8.582;2023-06-26T14:53:09;5.75;;;2.60;;
24557;SDS011;12726;49.148;8.582;2023-06-26T14:55:54;6.05;;;2.25;;
24557;SDS011;12726;49.148;8.582;2023-06-26T14:58:40;6.45;;;2.05;;
24557;SDS011;12726;49.148;8.582;2023-06-26T15:01:25;6.78;;;1.70;;
24557;SDS011;12726;49.148;8.582;2023-06-26T15:04:12;6.75;;;1.45;;
24557;SDS011;12726;49.148;8.582;2023-06-26T15:06:57;3.83;;;1.55;;
24557;SDS011;12726;49.148;8.582;2023-06-26T15:09:42;7.05;;;1.70;;
24557;SDS011;12726;49.148;8.582;2023-06-26T15:12:27;3.35;;;1.63;;
24557;SDS011;12726;49.148;8.582;2023-06-26T15:15:14;3.83;;;1.60;;
24557;SDS011;12726;49.148;8.582;2023-06-26T15:18:01;3.25;;;1.10;;
24557;SDS011;12726;49.148;8.582;2023-06-26T15:20:49;3.30;;;1.48;;
24557;SDS011;12726;49.148;8.582;2023-06-26T15:23:35;2.13;;;1.33;;
24557;SDS011;12726;49.148;8.582;2023-06-26T15:26:22;4.35;;;1.58;;
24557;SDS011;12726;49.148;8.582;2023-06-26T15:29:07;5.45;;;1.40;;
24557;SDS011;12726;49.148;8.582;2023-06-26T15:31:52;2.67;;;1.30;;
24557;SDS011;12726;49.148;8.582;2023-06-26T15:34:38;4.03;;;1.77;;
24557;SDS011;12726;49.148;8.582;2023-06-26T15:37:25;2.97;;;1.42;;
24557;SDS011;12726;49.148;8.582;2023-06-26T15:40:11;6.30;;;1.50;;
24557;SDS011;12726;49.148;8.582;2023-06-26T15:42:57;4.95;;;1.45;;
24557;SDS011;12726;49.148;8.582;2023-06-26T15:45:42;5.90;;;1.52;;
24557;SDS011;12726;49.148;8.582;2023-06-26T15:48:28;2.10;;;1.23;;
24557;SDS011;12726;49.148;8.582;2023-06-26T15:51:13;3.60;;;1.65;;
24557;SDS011;12726;49.148;8.582;2023-06-26T15:54:00;2.70;;;1.23;;
24557;SDS011;12726;49.148;8.582;2023-06-26T15:56:46;4.00;;;1.52;;
24557;SDS011;12726;49.148;8.582;2023-06-26T15:59:31;3.63;;;1.23;;
24557;SDS011;12726;49.148;8.582;2023-06-26T16:02:17;4.65;;;1.35;;
24557;SDS011;12726;49.148;8.582;2023-06-26T16:05:02;5.35;;;1.30;;
24557;SDS011;12726;49.148;8.582;2023-06-26T16:07:47;1.73;;;1.02;;
24557;SDS011;12726;49.148;8.582;2023-06-26T16:10:34;6.18;;;1.63;;
24557;SDS011;12726;49.148;8.582;2023-06-26T16:13:19;2.05;;;1.05;;
24557;SDS011;12726;49.148;8.582;2023-06-26T16:16:05;3.40;;;1.02;;
24557;SDS011;12726;49.148;8.582;2023-06-26T16:18:52;2.08;;;1.20;;
24557;SDS011;12726;49.148;8.582;2023-06-26T16:21:37;2.75;;;1.25;;
24557;SDS011;12726;49.148;8.582;2023-06-26T16:24:22;4.90;;;1.52;;
24557;SDS011;12726;49.148;8.582;2023-06-26T16:27:09;2.42;;;1.13;;
24557;SDS011;12726;49.148;8.582;2023-06-26T16:29:54;6.13;;;1.30;;
24557;SDS011;12726;49.148;8.582;2023-06-26T16:32:41;6.20;;;1.70;;
24557;SDS011;12726;49.148;8.582;2023-06-26T16:35:26;2.58;;;1.20;;
24557;SDS011;12726;49.148;8.582;2023-06-26T16:38:13;5.18;;;1.38;;
24557;SDS011;12726;49.148;8.582;2023-06-26T16:40:58;4.85;;;1.67;;